Aeroporto :
LOGIN :

Iscrizione | Disclaimer

   EN    FR    IT 

 










Sommario :    VFR   VFR Marginale   IFR   IFR Intensivo   IFR Molto Intensivo
Visibilità : 
Base nubi : 
>= 8 km
>= 3000ft
5 / 8 km
1000 / 3000 ft
1500m / 5 km
500 / 1000 ft
800 / 1500m
200 / 500 ft
< 800m
< 200 ft
Simboli :   Temporali  Nebbia  Neve Forte  Precipitazioni Forti  Vento > 20 kt
SIGMETs :   Varie  Temporali  Ghiacco  Turbolenza  Onda orograficha  Ceneri Vulcaniche







- Altitudine del aeroporto : 119 ft
- Codice IATA : WAT


EIWF - Waterford

ULTIMO METAR :
  • 231930Z 18009KT 150V210 CAVOK 15/14 Q1019

METARs OBSOLETI :
  • 231900Z 18009KT 9999 FEW020 16/14 Q1019
  • 231830Z 18009KT 150V210 9999 FEW010 SCT022 16/14 Q1019
  • 231800Z 20010KT 170V230 9999 FEW014 SCT023 16/15 Q1019
  • 231730Z 20011KT 9999 BKN015 16/15 Q1019
  • 231700Z 21012KT 180V240 9999 SCT008 SCT020 17/14 Q1020

TAF TAF EIWF
Valido dal 23 a 18 ore il 24 a 03 ore UTC


231700Z 2318/2403 20012KT 9999 SCT012 BKN020
TEMPO 2318/2403 SCT009 BKN012
PROB30
TEMPO 2319/2403 3000 BR BKN005
BECMG 2320/2322 15008KT
BECMG 2401/2403 12007KT
ATIS : +353 51 877 000
Nessun NOTAM noto per questo aeroporto.



MetMap, La meteo Aeronautica in un colpo d'occhio ! - Copyright ORBIFLY Dicembre 2007 - Disclaimer

ORBIFLY MET'MAP TEAM :

Programmazione e sviluppo : Alexandra Zaïnal
Concezione e sviluppo : Baudouin d'Aumeries
Co-Programmazione e sviluppo : Marc-Olivier Méhu
Supporto tecnico e logistico : Manuel Goepfert
Aiuto per la traduzione : Arnaldo La Scala

Contatto : metmap@orbifly.com




FONTI E CREDITI :

   NOAA